Portada
METAR-TAF:

METAR-TAF

Aeroports :

Oaxaca, Mèxic

latitud: 16-58N, longitud: 096-44W, altitud: 1528 m

Observació

L'informe es va fer fa 9 hores i 46 minuts, a les 01:40 UTC
Vent 6 kt del Oest
Temperatura 18°C
Humitat 39%
Pressió 1026 hPa
Visibilitat: 11.3 km
Cel clar

METAR: MMOX 050140Z 27006KT 7SM SKC 18/04 A3031

Hora: 05:26 (11:26 UTC)

Pronòstic

L'informe es va fer fa 6 hores i 28 minuts, a les 04:58 UTC
Pronòstic vàlid del 05 a les 06 UTC al 06 a les 06 UTC
Vent 5 kt del Nord/Nord-Est
Visibilitat: 10 km
Cel clar
A partir de les 05 a les 1800 UTC
Vent 10 kt del Est/Nord-Est
Visibilitat: 10 km
Núvols disperses a una alçada de 2000 ft
A partir de les 06 a les 0200 UTC
Vent 5 kt del Nord/Nord-Est
Visibilitat: 10 km
Cel ennuvolat a una alçada de 2000 ft

TAF: MMOX 050458Z 0506/0606 03005KT P6SM SKC FM051800 06010KT P6SM SCT020 FM060200 03005KT P6SM BKN020

Observacions i pronòstics meteorològics de més de 4000 aeroports (METAR i TAF).

Les estacions disponibles són els punts grocs i vermells al mapa.

Posi el ratolí al punt desitjat per veure el nom de l'estació.

Feu clic per veure les observacions i els pronòstics meteorològics.

Per canviar el mapa: feu clic els botons verds amb una creu de color negre per apropar; al botó verd amb un guió per allunyar la imatge; o en les fletxes verdes per a mapes adjacents.


METAR-TAF: